Goodwill — DSOW6 — position and weather

sailwx.info

Track history (hours):
 
Tides and Currents Weather Stations Pressure Air Temp Water Temp Dewpoint Dewpoint Depression Visibility Wind Speed Wind Dir Waves Ship Positions

Goodwill

Last reported at 2015-Mar-18 21:31 UTC. Time now 2015-Apr-19 03:04 UTC.
Position S 23°53' E 153°58'.
Warning: this ship's position is 31 days out of date.

Length 269 m; draft 15.1 m.

Type: Cargo ship. MMSI: 440541000.

Date/timePositionNaut miles runAvg speedWind from/ knotsBaromVisibWave heightAir tempDewpointWater temp
2015-Mar-18 21:31S 23°53' E 153°58'9 9.7
2015-Mar-18 20:33S 24°02' E 153°58'114 9.1
2015-Mar-18 08:04S 25°56' E 153°57'7 8.4
2015-Mar-18 07:17S 26°03' E 153°57'7 8.0
2015-Mar-18 06:21S 26°10' E 153°57'8 8.5
2015-Mar-18 05:25S 26°18' E 153°57'2210.3
2015-Mar-18 03:17S 26°40' E 153°56'810.5
2015-Mar-18 02:32S 26°48' E 153°57'1010.4
2015-Mar-18 01:33S 26°58' E 153°56'1110.7
2015-Mar-18 00:33S 27°09' E 153°55'1210.5
2015-Mar-17 23:27S 27°20' E 153°55'1310.3
2015-Mar-17 22:14S 27°33' E 153°53'7 9.6
2015-Mar-17 21:33S 27°39' E 153°52'9 9.2
2015-Mar-17 20:34S 27°48' E 153°51'8 8.4
2015-Mar-17 19:34S 27°57' E 153°50'8 8.2
2015-Mar-17 18:33S 28°05' E 153°49'8 8.3
2015-Mar-17 17:33S 28°13' E 153°47'263 9.1
2015-Mar-16 12:31S 32°30' E 152°40'9 9.7
2015-Mar-16 11:33S 32°37' E 152°33'9 9.5
2015-Mar-16 10:34S 32°43' E 152°25'9 9.3
2015-Mar-16 09:33S 32°49' E 152°17'9 8.9
2015-Mar-16 08:33S 32°54' E 152°08'1010.1
2015-Mar-16 07:33S 32°56' E 151°56'7 7.4
2015-Mar-16 06:33S 32°55' E 151°47'3 3.0
2015-Mar-16 05:33S 32°53' E 151°45'0 0.0
2015-Mar-16 04:32S 32°53' E 151°45'0 0.0
2015-Mar-16 03:32S 32°53' E 151°45'0 0.0
2015-Mar-16 02:32S 32°53' E 151°45'0 0.0
2015-Mar-16 01:29S 32°53' E 151°45'0 0.0
2015-Mar-16 00:26S 32°53' E 151°45'0 0.0
2015-Mar-15 23:32S 32°53' E 151°45'0 0.0
2015-Mar-15 22:32S 32°53' E 151°45'0 0.0
2015-Mar-15 21:32S 32°53' E 151°45'0 0.0
2015-Mar-15 20:32S 32°53' E 151°45'0 0.0
2015-Mar-15 19:32S 32°53' E 151°45'0 0.0
2015-Mar-15 18:32S 32°53' E 151°45'0 0.0
2015-Mar-15 17:32S 32°53' E 151°45'0 0.0
2015-Mar-15 16:32S 32°53' E 151°45'0 0.0
2015-Mar-15 15:14S 32°53' E 151°45'0 0.0
2015-Mar-15 14:32S 32°53' E 151°45'0 0.0
2015-Mar-15 13:26S 32°53' E 151°45'0 0.0
2015-Mar-15 12:32S 32°53' E 151°45'0 0.0
2015-Mar-15 11:32S 32°53' E 151°45'0 0.0
2015-Mar-15 10:32S 32°53' E 151°45'0 0.0
2015-Mar-15 09:32S 32°53' E 151°45'0 0.0
2015-Mar-15 08:32S 32°53' E 151°45'0 0.0
2015-Mar-15 07:32S 32°53' E 151°45'0 0.0
2015-Mar-15 06:32S 32°53' E 151°45'0 0.0
2015-Mar-15 05:32S 32°53' E 151°45'0 0.0
2015-Mar-15 04:32S 32°53' E 151°45'0 0.0
2015-Mar-15 03:32S 32°53' E 151°45'0 0.0
2015-Mar-15 02:32S 32°53' E 151°45'0 0.0
2015-Mar-15 01:32S 32°53' E 151°45'0 0.0
2015-Mar-15 00:32S 32°53' E 151°45'0 0.0
2015-Mar-14 23:28S 32°53' E 151°45'0 0.0
2015-Mar-14 22:28S 32°53' E 151°45'0 0.0
2015-Mar-14 21:31S 32°53' E 151°45'0 0.0
2015-Mar-14 20:28S 32°53' E 151°45'0 0.0
2015-Mar-14 19:28S 32°53' E 151°45'0 0.0
2015-Mar-14 18:31S 32°53' E 151°45'0 0.0
2015-Mar-14 17:31S 32°53' E 151°45'0 0.0
2015-Mar-14 16:31S 32°53' E 151°45'0 0.0
2015-Mar-14 15:31S 32°53' E 151°45'0 0.0
2015-Mar-14 14:28S 32°53' E 151°45'0 0.0
2015-Mar-14 13:31S 32°53' E 151°45'0 0.3
2015-Mar-14 12:33S 32°53' E 151°45'3 3.4
2015-Mar-14 11:33S 32°55' E 151°49'9 8.9
2015-Mar-14 10:33S 33°03' E 151°52'18 1.6
2015-Mar-13 23:24S 33°18' E 152°04'7 8.7
2015-Mar-13 22:34S 33°11' E 152°01'1111.0
2015-Mar-13 21:33S 33°00' E 151°58'9 9.3
2015-Mar-13 20:33S 32°55' E 152°07'1211.9
2015-Mar-13 19:33S 32°48' E 152°19'1212.2
2015-Mar-13 18:33S 32°40' E 152°29'1211.8
2015-Mar-13 17:33S 32°31' E 152°39'28812.0
2015-Mar-12 17:30S 27°51' E 153°56'1212.3
2015-Mar-12 16:34S 27°39' E 153°56'2511.9
2015-Mar-12 14:28S 27°14' E 153°55'1110.9
2015-Mar-12 13:28S 27°04' E 153°55'1010.5
2015-Mar-12 12:32S 26°54' E 153°55'1010.0
2015-Mar-12 11:32S 26°44' E 153°56'3710.7
2015-Mar-12 08:03S 26°06' E 153°56'  
Track history (hours):
 
Tides and Currents Weather Stations Pressure Air Temp Water Temp Dewpoint Dewpoint Depression Visibility Wind Speed Wind Dir Waves Ship Positions

Goodwill

Last reported at 2015-Mar-18 21:31 UTC. Time now 2015-Apr-19 03:04 UTC.
Position S 23°53' E 153°58'.
Warning: this ship's position is 31 days out of date.

Length 269 m; draft 15.1 m.

Type: Cargo ship. MMSI: 440541000.

Date/timePositionNaut miles runAvg speedWind from/ knotsBaromVisibWave heightAir tempDewpointWater temp
2015-Mar-18 21:31S 23°53' E 153°58'9 9.7
2015-Mar-18 20:33S 24°02' E 153°58'114 9.1
2015-Mar-18 08:04S 25°56' E 153°57'7 8.4
2015-Mar-18 07:17S 26°03' E 153°57'7 8.0
2015-Mar-18 06:21S 26°10' E 153°57'8 8.5
2015-Mar-18 05:25S 26°18' E 153°57'2210.3
2015-Mar-18 03:17S 26°40' E 153°56'810.5
2015-Mar-18 02:32S 26°48' E 153°57'1010.4
2015-Mar-18 01:33S 26°58' E 153°56'1110.7
2015-Mar-18 00:33S 27°09' E 153°55'1210.5
2015-Mar-17 23:27S 27°20' E 153°55'1310.3
2015-Mar-17 22:14S 27°33' E 153°53'7 9.6
2015-Mar-17 21:33S 27°39' E 153°52'9 9.2
2015-Mar-17 20:34S 27°48' E 153°51'8 8.4
2015-Mar-17 19:34S 27°57' E 153°50'8 8.2
2015-Mar-17 18:33S 28°05' E 153°49'8 8.3
2015-Mar-17 17:33S 28°13' E 153°47'263 9.1
2015-Mar-16 12:31S 32°30' E 152°40'9 9.7
2015-Mar-16 11:33S 32°37' E 152°33'9 9.5
2015-Mar-16 10:34S 32°43' E 152°25'9 9.3
2015-Mar-16 09:33S 32°49' E 152°17'9 8.9
2015-Mar-16 08:33S 32°54' E 152°08'1010.1
2015-Mar-16 07:33S 32°56' E 151°56'7 7.4
2015-Mar-16 06:33S 32°55' E 151°47'3 3.0
2015-Mar-16 05:33S 32°53' E 151°45'0 0.0
2015-Mar-16 04:32S 32°53' E 151°45'0 0.0
2015-Mar-16 03:32S 32°53' E 151°45'0 0.0
2015-Mar-16 02:32S 32°53' E 151°45'0 0.0
2015-Mar-16 01:29S 32°53' E 151°45'0 0.0
2015-Mar-16 00:26S 32°53' E 151°45'0 0.0
2015-Mar-15 23:32S 32°53' E 151°45'0 0.0
2015-Mar-15 22:32S 32°53' E 151°45'0 0.0
2015-Mar-15 21:32S 32°53' E 151°45'0 0.0
2015-Mar-15 20:32S 32°53' E 151°45'0 0.0
2015-Mar-15 19:32S 32°53' E 151°45'0 0.0
2015-Mar-15 18:32S 32°53' E 151°45'0 0.0
2015-Mar-15 17:32S 32°53' E 151°45'0 0.0
2015-Mar-15 16:32S 32°53' E 151°45'0 0.0
2015-Mar-15 15:14S 32°53' E 151°45'0 0.0
2015-Mar-15 14:32S 32°53' E 151°45'0 0.0
2015-Mar-15 13:26S 32°53' E 151°45'0 0.0
2015-Mar-15 12:32S 32°53' E 151°45'0 0.0
2015-Mar-15 11:32S 32°53' E 151°45'0 0.0
2015-Mar-15 10:32S 32°53' E 151°45'0 0.0
2015-Mar-15 09:32S 32°53' E 151°45'0 0.0
2015-Mar-15 08:32S 32°53' E 151°45'0 0.0
2015-Mar-15 07:32S 32°53' E 151°45'0 0.0
2015-Mar-15 06:32S 32°53' E 151°45'0 0.0
2015-Mar-15 05:32S 32°53' E 151°45'0 0.0
2015-Mar-15 04:32S 32°53' E 151°45'0 0.0
2015-Mar-15 03:32S 32°53' E 151°45'0 0.0
2015-Mar-15 02:32S 32°53' E 151°45'0 0.0
2015-Mar-15 01:32S 32°53' E 151°45'0 0.0
2015-Mar-15 00:32S 32°53' E 151°45'0 0.0
2015-Mar-14 23:28S 32°53' E 151°45'0 0.0
2015-Mar-14 22:28S 32°53' E 151°45'0 0.0
2015-Mar-14 21:31S 32°53' E 151°45'0 0.0
2015-Mar-14 20:28S 32°53' E 151°45'0 0.0
2015-Mar-14 19:28S 32°53' E 151°45'0 0.0
2015-Mar-14 18:31S 32°53' E 151°45'0 0.0
2015-Mar-14 17:31S 32°53' E 151°45'0 0.0
2015-Mar-14 16:31S 32°53' E 151°45'0 0.0
2015-Mar-14 15:31S 32°53' E 151°45'0 0.0
2015-Mar-14 14:28S 32°53' E 151°45'0 0.0
2015-Mar-14 13:31S 32°53' E 151°45'0 0.3
2015-Mar-14 12:33S 32°53' E 151°45'3 3.4
2015-Mar-14 11:33S 32°55' E 151°49'9 8.9
2015-Mar-14 10:33S 33°03' E 151°52'18 1.6
2015-Mar-13 23:24S 33°18' E 152°04'7 8.7
2015-Mar-13 22:34S 33°11' E 152°01'1111.0
2015-Mar-13 21:33S 33°00' E 151°58'9 9.3
2015-Mar-13 20:33S 32°55' E 152°07'1211.9
2015-Mar-13 19:33S 32°48' E 152°19'1212.2
2015-Mar-13 18:33S 32°40' E 152°29'1211.8
2015-Mar-13 17:33S 32°31' E 152°39'28812.0
2015-Mar-12 17:30S 27°51' E 153°56'1212.3
2015-Mar-12 16:34S 27°39' E 153°56'2511.9
2015-Mar-12 14:28S 27°14' E 153°55'1110.9
2015-Mar-12 13:28S 27°04' E 153°55'1010.5
2015-Mar-12 12:32S 26°54' E 153°55'1010.0
2015-Mar-12 11:32S 26°44' E 153°56'3710.7
2015-Mar-12 08:03S 26°06' E 153°56'  

Dump ship's entire track history